Christi C — WDH7980 — position and weather

sailwx.info

Track history (hours):
 
Tides and Currents Weather Stations Pressure Air Temp Water Temp Dewpoint Dewpoint Depression Visibility Wind Speed Wind Dir Waves Ship Positions

Christi C

Owner: Diversified Marine Services, LLC, Chauvin, LA. More information available from US FCC via Universal Licensing System and Coast Guard Vessel Documentation Center.

Last reported at 2017-Nov-17 09:22 UTC. Time now 2017-Nov-21 17:33 UTC.
Position N 30°26' W 086°20'.

Length 30 m.

Type: Towing. MMSI: 367653490.

Date/timePositionNaut miles runAvg speedWind from/ knotsBaromVisibWave heightAir tempDewpointWater temp
2017-Nov-17 09:22N 30°26' W 086°20'3 7.3
2017-Nov-17 09:00N 30°26' W 086°23'4 7.4
2017-Nov-17 08:30N 30°26' W 086°28'15 7.1
2017-Nov-17 06:25N 30°24' W 086°45'3 7.2
2017-Nov-17 06:00N 30°24' W 086°48'4 7.1
2017-Nov-17 05:30N 30°24' W 086°52'191 5.9
2017-Nov-15 21:08N 29°33' W 090°24'2 7.1
2017-Nov-15 20:53N 29°33' W 090°26'3 7.0
2017-Nov-15 20:30N 29°34' W 090°30'3 6.9
2017-Nov-15 20:00N 29°34' W 090°33'3 6.0
2017-Nov-15 19:30N 29°35' W 090°37'3 6.7
2017-Nov-15 19:00N 29°36' W 090°40'2 4.2
2017-Nov-15 18:30N 29°36' W 090°43'1 1.8
2017-Nov-15 18:00N 29°35' W 090°43'1 2.7
2017-Nov-15 17:30N 29°34' W 090°44'3 6.6
2017-Nov-15 17:00N 29°32' W 090°47'5 7.2
2017-Nov-15 16:20N 29°32' W 090°53'5 7.0
2017-Nov-15 15:39N 29°35' W 090°58'  
2017-Nov-08 02:29N 29°32' W 090°51'3 6.9
2017-Nov-08 02:00N 29°32' W 090°48'3 6.2
2017-Nov-08 01:30N 29°34' W 090°45'3 5.3
2017-Nov-08 01:00N 29°36' W 090°43'2 4.4
2017-Nov-08 00:30N 29°36' W 090°40'4 7.1
2017-Nov-08 00:00N 29°35' W 090°36'1 1.6
2017-Nov-07 23:30N 29°35' W 090°36'3 6.7
2017-Nov-07 23:00N 29°34' W 090°32'3 6.9
2017-Nov-07 22:30N 29°33' W 090°28'  
Track history (hours):
 
Tides and Currents Weather Stations Pressure Air Temp Water Temp Dewpoint Dewpoint Depression Visibility Wind Speed Wind Dir Waves Ship Positions

Christi C

Owner: Diversified Marine Services, LLC, Chauvin, LA. More information available from US FCC via Universal Licensing System and Coast Guard Vessel Documentation Center.

Last reported at 2017-Nov-17 09:22 UTC. Time now 2017-Nov-21 17:33 UTC.
Position N 30°26' W 086°20'.

Length 30 m.

Type: Towing. MMSI: 367653490.

Date/timePositionNaut miles runAvg speedWind from/ knotsBaromVisibWave heightAir tempDewpointWater temp
2017-Nov-17 09:22N 30°26' W 086°20'3 7.3
2017-Nov-17 09:00N 30°26' W 086°23'4 7.4
2017-Nov-17 08:30N 30°26' W 086°28'15 7.1
2017-Nov-17 06:25N 30°24' W 086°45'3 7.2
2017-Nov-17 06:00N 30°24' W 086°48'4 7.1
2017-Nov-17 05:30N 30°24' W 086°52'191 5.9
2017-Nov-15 21:08N 29°33' W 090°24'2 7.1
2017-Nov-15 20:53N 29°33' W 090°26'3 7.0
2017-Nov-15 20:30N 29°34' W 090°30'3 6.9
2017-Nov-15 20:00N 29°34' W 090°33'3 6.0
2017-Nov-15 19:30N 29°35' W 090°37'3 6.7
2017-Nov-15 19:00N 29°36' W 090°40'2 4.2
2017-Nov-15 18:30N 29°36' W 090°43'1 1.8
2017-Nov-15 18:00N 29°35' W 090°43'1 2.7
2017-Nov-15 17:30N 29°34' W 090°44'3 6.6
2017-Nov-15 17:00N 29°32' W 090°47'5 7.2
2017-Nov-15 16:20N 29°32' W 090°53'5 7.0
2017-Nov-15 15:39N 29°35' W 090°58'  
2017-Nov-08 02:29N 29°32' W 090°51'3 6.9
2017-Nov-08 02:00N 29°32' W 090°48'3 6.2
2017-Nov-08 01:30N 29°34' W 090°45'3 5.3
2017-Nov-08 01:00N 29°36' W 090°43'2 4.4
2017-Nov-08 00:30N 29°36' W 090°40'4 7.1
2017-Nov-08 00:00N 29°35' W 090°36'1 1.6
2017-Nov-07 23:30N 29°35' W 090°36'3 6.7
2017-Nov-07 23:00N 29°34' W 090°32'3 6.9
2017-Nov-07 22:30N 29°33' W 090°28'  

Dump ship's entire track history